Time;durP1;ratioP1;P1;durP2;ratioP2;P2;SDS_P1;SDS_P2;PMS_P1;PMS_P2;Temp;Humidity;BMP_temperature;BMP_pressure;BME280_temperature;BME280_humidity;BME280_pressure;Samples;Min_cycle;Max_cycle;Signal;HPM_P1;HPM_P2
2023/05/09 00:01:20;;;;;;;14.88;10.25;;;;;;;15.62;100.00;101457.38;5038616;28;20136;-71
2023/05/09 00:03:46;;;;;;;14.10;9.95;;;;;;;15.57;100.00;101456.06;5022469;28;20075;-70
2023/05/09 00:06:12;;;;;;;11.55;9.07;;;;;;;15.56;100.00;101464.09;5028610;28;20407;-71
2023/05/09 00:08:37;;;;;;;12.75;9.82;;;;;;;15.54;100.00;101466.88;5021741;28;20052;-71
2023/05/09 00:11:03;;;;;;;12.60;9.50;;;;;;;15.53;100.00;101467.06;5037725;28;20467;-71
2023/05/09 00:13:28;;;;;;;14.40;9.85;;;;;;;15.52;100.00;101458.41;5023711;28;20041;-71
2023/05/09 00:15:56;;;;;;;15.18;9.93;;;;;;;15.51;100.00;101458.56;5022774;28;20040;-71
2023/05/09 00:18:22;;;;;;;21.25;10.30;;;;;;;15.52;100.00;101454.94;5037939;28;20048;-70
2023/05/09 00:20:48;;;;;;;14.77;10.40;;;;;;;15.50;100.00;101459.53;5018973;28;20408;-71
2023/05/09 00:23:13;;;;;;;25.10;15.23;;;;;;;15.51;100.00;101445.50;5038623;28;20048;-70
2023/05/09 00:25:39;;;;;;;38.45;19.75;;;;;;;15.52;100.00;101447.13;5026154;28;20454;-71
2023/05/09 00:28:04;;;;;;;34.80;17.65;;;;;;;15.50;100.00;101438.63;5017580;28;20159;-71
2023/05/09 00:30:30;;;;;;;36.20;19.60;;;;;;;15.50;100.00;101436.84;4999098;28;20029;-71
2023/05/09 00:32:55;;;;;;;47.67;22.73;;;;;;;15.53;100.00;101436.50;5022154;28;20043;-71
2023/05/09 00:35:21;;;;;;;41.42;21.90;;;;;;;15.54;100.00;101442.56;5038814;28;20044;-71
2023/05/09 00:37:46;;;;;;;52.22;25.42;;;;;;;15.57;100.00;101440.38;5021146;28;20025;-71
2023/05/09 00:40:12;;;;;;;54.63;26.08;;;;;;;15.55;100.00;101434.50;5023664;28;20041;-71
2023/05/09 00:42:38;;;;;;;57.58;26.50;;;;;;;15.55;100.00;101429.28;5023296;28;20041;-71
2023/05/09 00:45:04;;;;;;;52.15;25.20;;;;;;;15.55;100.00;101431.09;5022433;28;20037;-71
2023/05/09 00:47:29;;;;;;;54.35;26.67;;;;;;;15.58;100.00;101423.72;5028472;28;20030;-71
2023/05/09 00:49:57;;;;;;;51.80;25.15;;;;;;;15.59;100.00;101424.53;5021242;28;20052;-70
2023/05/09 00:52:26;;;;;;;45.47;23.83;;;;;;;15.58;100.00;101413.28;5024854;28;20052;-71
2023/05/09 00:54:53;;;;;;;42.67;22.95;;;;;;;15.61;100.00;101414.72;5038742;28;20121;-71
2023/05/09 00:57:19;;;;;;;44.97;23.05;;;;;;;15.62;100.00;101408.50;5007090;28;20176;-71
2023/05/09 00:59:45;;;;;;;64.47;30.00;;;;;;;15.65;100.00;101409.94;5038504;28;20127;-71
2023/05/09 01:02:11;;;;;;;66.35;31.10;;;;;;;15.66;100.00;101416.81;5024203;28;20120;-70
2023/05/09 01:04:40;;;;;;;72.40;33.60;;;;;;;15.62;100.00;101413.75;5021653;28;20037;-71
2023/05/09 01:07:20;;;;;;;58.22;28.58;;;;;;;15.61;100.00;101419.94;5041014;28;20036;-71
2023/05/09 01:10:03;;;;;;;51.13;25.42;;;;;;;15.58;100.00;101415.88;5041557;28;20053;-71
2023/05/09 01:12:48;;;;;;;55.83;27.17;;;;;;;15.58;100.00;101412.47;5042954;28;20376;-71
2023/05/09 01:15:44;;;;;;;56.95;28.63;;;;;;;15.57;100.00;101409.00;5010951;28;20132;-71
2023/05/09 01:18:31;;;;;;;60.85;28.20;;;;;;;15.56;100.00;101398.75;5000315;28;20140;-71
2023/05/09 01:21:06;;;;;;;57.70;27.73;;;;;;;15.55;100.00;101397.94;5019796;28;20052;-71
2023/05/09 01:23:35;;;;;;;74.35;33.80;;;;;;;15.54;100.00;101400.75;5024330;28;20071;-71
2023/05/09 01:26:08;;;;;;;70.35;31.40;;;;;;;15.54;100.00;101398.94;5026676;28;20048;-71
2023/05/09 01:28:39;;;;;;;68.30;31.30;;;;;;;15.55;100.00;101397.94;5041698;28;20210;-71
2023/05/09 01:31:07;;;;;;;73.53;31.83;;;;;;;15.55;100.00;101400.53;5027173;28;20025;-71
2023/05/09 01:33:37;;;;;;;70.53;32.55;;;;;;;15.54;100.00;101393.69;5024363;28;20049;-71
2023/05/09 01:36:10;;;;;;;73.22;30.65;;;;;;;15.54;100.00;101392.91;5026839;28;20376;-71
2023/05/09 01:38:37;;;;;;;64.55;31.48;;;;;;;15.50;100.00;101387.19;5021007;28;20067;-71
2023/05/09 01:41:05;;;;;;;68.47;30.63;;;;;;;15.52;100.00;101393.06;5044062;28;20395;-71
2023/05/09 01:43:32;;;;;;;73.53;32.72;;;;;;;15.51;100.00;101386.19;5019441;28;20088;-71
2023/05/09 01:45:58;;;;;;;72.78;32.38;;;;;;;15.54;100.00;101391.09;5025559;28;20130;-71
2023/05/09 01:48:27;;;;;;;71.80;33.22;;;;;;;15.51;100.00;101382.78;5041147;28;20053;-71
2023/05/09 01:50:54;;;;;;;72.10;31.55;;;;;;;15.47;100.00;101384.94;5042515;28;20140;-71
2023/05/09 01:53:21;;;;;;;61.15;28.35;;;;;;;15.48;100.00;101388.34;5024530;28;20103;-71
2023/05/09 01:55:49;;;;;;;67.40;31.40;;;;;;;15.48;100.00;101381.34;5026656;28;20073;-71
2023/05/09 01:58:17;;;;;;;76.97;32.58;;;;;;;15.50;100.00;101381.13;5025268;28;20049;-71
2023/05/09 02:00:44;;;;;;;59.88;28.98;;;;;;;15.47;100.00;101384.94;5036514;28;20046;-71
2023/05/09 02:03:13;;;;;;;59.30;26.90;;;;;;;15.47;100.00;101384.13;5024540;28;20183;-71
2023/05/09 02:05:40;;;;;;;57.75;27.33;;;;;;;15.46;100.00;101374.63;5040685;28;20025;-71
2023/05/09 02:08:08;;;;;;;59.67;26.95;;;;;;;15.47;100.00;101373.66;5022722;28;20467;-71
2023/05/09 02:10:34;;;;;;;65.40;29.77;;;;;;;15.45;100.00;101370.41;5021809;28;20040;-71
2023/05/09 02:13:00;;;;;;;56.78;28.77;;;;;;;15.44;100.00;101374.81;5038979;28;20061;-71
2023/05/09 02:15:27;;;;;;;62.75;28.92;;;;;;;15.45;100.00;101381.69;5025202;28;20057;-71
2023/05/09 02:17:53;;;;;;;58.25;27.48;;;;;;;15.44;100.00;101377.41;5024141;28;20033;-71
2023/05/09 02:20:19;;;;;;;58.17;28.67;;;;;;;15.44;100.00;101377.41;5025671;28;20040;-71
2023/05/09 02:22:45;;;;;;;65.68;28.60;;;;;;;15.43;100.00;101373.19;5025858;28;20026;-71
2023/05/09 02:25:14;;;;;;;52.63;27.27;;;;;;;15.42;100.00;101381.22;5025102;28;20176;-71
2023/05/09 02:27:39;;;;;;;59.22;27.60;;;;;;;15.41;100.00;101375.19;5037880;28;20029;-71
2023/05/09 02:30:10;;;;;;;59.13;28.42;;;;;;;15.40;100.00;101377.97;5044921;28;20041;-71
2023/05/09 02:32:38;;;;;;;58.50;27.92;;;;;;;15.38;100.00;101371.09;5040935;28;20162;-71
2023/05/09 02:35:05;;;;;;;53.20;25.63;;;;;;;15.40;100.00;101373.53;5026742;28;20054;-71
2023/05/09 02:37:35;;;;;;;53.92;26.98;;;;;;;15.41;100.00;101369.13;5041928;28;20108;-71
2023/05/09 02:40:01;;;;;;;56.17;26.23;;;;;;;15.40;100.00;101352.63;5024590;28;20045;-71
2023/05/09 02:42:28;;;;;;;54.88;25.45;;;;;;;15.41;100.00;101353.44;5023450;28;20029;-71
2023/05/09 02:44:54;;;;;;;53.15;26.77;;;;;;;15.41;100.00;101359.50;5019071;28;20077;-71
2023/05/09 02:47:21;;;;;;;51.33;24.95;;;;;;;15.42;100.00;101358.50;5023850;28;20095;-71
2023/05/09 02:49:49;;;;;;;52.00;25.77;;;;;;;15.43;100.00;101359.34;5024987;28;20128;-70
2023/05/09 02:52:15;;;;;;;48.60;24.40;;;;;;;15.43;100.00;101360.13;5038016;28;20029;-71
2023/05/09 02:54:40;;;;;;;44.92;22.30;;;;;;;15.44;100.00;101358.31;5037226;28;20056;-71
2023/05/09 02:57:06;;;;;;;47.40;23.75;;;;;;;15.44;100.00;101356.50;5024039;28;20116;-71
2023/05/09 02:59:32;;;;;;;46.08;23.77;;;;;;;15.45;100.00;101357.34;5036451;28;20057;-71
2023/05/09 03:02:01;;;;;;;44.55;22.35;;;;;;;15.44;100.00;101353.91;5024343;28;20030;-71
2023/05/09 03:04:26;;;;;;;43.75;21.48;;;;;;;15.43;100.00;101359.34;5019952;28;20045;-71
2023/05/09 03:06:52;;;;;;;43.08;22.50;;;;;;;15.40;100.00;101357.84;5022011;28;20567;-71
2023/05/09 03:09:18;;;;;;;40.15;20.05;;;;;;;15.41;100.00;101363.88;5023031;28;20098;-71
2023/05/09 03:11:43;;;;;;;38.35;20.23;;;;;;;15.36;100.00;101362.63;5023738;28;20111;-71
2023/05/09 03:14:10;;;;;;;42.67;21.58;;;;;;;15.36;100.00;101367.03;5021568;28;20042;-71
2023/05/09 03:16:36;;;;;;;43.30;21.08;;;;;;;15.35;100.00;101361.00;5023445;28;20064;-71
2023/05/09 03:19:02;;;;;;;37.90;19.58;;;;;;;15.33;100.00;101356.91;5018689;28;20137;-71
2023/05/09 03:21:29;;;;;;;38.90;21.33;;;;;;;15.32;100.00;101353.50;5040905;28;20431;-71
2023/05/09 03:23:54;;;;;;;39.53;20.90;;;;;;;15.32;100.00;101347.47;5022147;28;20045;-71
2023/05/09 03:26:20;;;;;;;39.60;20.02;;;;;;;15.29;100.00;101350.41;5023917;28;20511;-71
2023/05/09 03:28:49;;;;;;;39.72;20.02;;;;;;;15.28;100.00;101346.19;5037043;28;20064;-71
2023/05/09 03:31:15;;;;;;;39.72;20.90;;;;;;;15.25;100.00;101341.31;5042002;28;20385;-71
2023/05/09 03:33:41;;;;;;;38.13;19.98;;;;;;;15.24;100.00;101337.91;5019508;28;20033;-71
2023/05/09 03:36:08;;;;;;;37.70;19.55;;;;;;;15.25;100.00;101328.25;5023890;28;20029;-71
2023/05/09 03:38:34;;;;;;;35.97;18.90;;;;;;;15.22;100.00;101332.03;5039006;28;20037;-71
2023/05/09 03:41:00;;;;;;;37.67;19.80;;;;;;;15.21;100.00;101333.00;5025568;28;20033;-71
2023/05/09 03:43:26;;;;;;;34.95;17.70;;;;;;;15.19;100.00;101325.34;5032255;28;20110;-71
2023/05/09 03:45:51;;;;;;;30.85;15.45;;;;;;;15.19;100.00;101319.31;5022998;28;20037;-71
2023/05/09 03:48:17;;;;;;;28.92;16.23;;;;;;;15.19;100.00;101316.69;5024405;28;20133;-71
2023/05/09 03:50:48;;;;;;;32.05;16.55;;;;;;;15.20;100.00;101313.09;5023584;28;20028;-71
2023/05/09 03:53:14;;;;;;;38.25;18.75;;;;;;;15.20;100.00;101318.34;5024182;28;20094;-71
2023/05/09 03:55:41;;;;;;;30.05;17.05;;;;;;;15.18;100.00;101321.13;5008759;28;20450;-71
2023/05/09 03:58:07;;;;;;;32.75;16.98;;;;;;;15.16;100.00;101304.81;5023323;28;20049;-71
2023/05/09 04:00:36;;;;;;;35.88;19.55;;;;;;;15.14;100.00;101313.78;5023893;28;20033;-71
2023/05/09 04:03:11;;;;;;;34.95;17.98;;;;;;;15.12;100.00;101300.09;5022543;28;20531;-71
2023/05/09 04:05:40;;;;;;;31.42;16.23;;;;;;;15.09;100.00;101303.06;5023258;28;20075;-71
2023/05/09 04:08:12;;;;;;;34.13;17.70;;;;;;;15.11;100.00;101301.91;5022368;28;20041;-71
2023/05/09 04:10:37;;;;;;;36.70;18.85;;;;;;;15.22;100.00;101295.47;5027024;28;20561;-71
2023/05/09 04:13:03;;;;;;;34.08;19.15;;;;;;;15.18;100.00;101287.16;5024829;28;20037;-71
2023/05/09 04:15:29;;;;;;;45.15;22.10;;;;;;;15.12;100.00;101289.63;5040228;28;20033;-71
2023/05/09 04:17:56;;;;;;;41.33;19.85;;;;;;;15.02;100.00;101284.66;5038701;28;20025;-71
2023/05/09 04:20:21;;;;;;;41.15;20.73;;;;;;;15.02;100.00;101282.03;5026847;28;20056;-71
2023/05/09 04:22:47;;;;;;;43.42;20.10;;;;;;;15.04;100.00;101282.69;5026917;28;20041;-71
2023/05/09 04:25:15;;;;;;;44.17;20.38;;;;;;;14.97;100.00;101282.56;5043403;28;20025;-71
2023/05/09 04:27:41;;;;;;;35.08;19.50;;;;;;;14.94;100.00;101288.13;5043992;28;20029;-71
2023/05/09 04:30:08;;;;;;;37.13;20.35;;;;;;;15.03;100.00;101293.28;5027025;28;20056;-71
2023/05/09 04:32:34;;;;;;;35.63;19.15;;;;;;;14.99;100.00;101298.03;5024412;28;20029;-70
2023/05/09 04:35:00;;;;;;;44.17;21.75;;;;;;;15.07;100.00;101305.00;5025597;28;20032;-69
2023/05/09 04:37:31;;;;;;;38.38;19.92;;;;;;;14.98;100.00;101292.00;5027885;28;20053;-69
2023/05/09 04:39:57;;;;;;;38.78;21.33;;;;;;;14.97;100.00;101292.19;5041493;28;20204;-69
2023/05/09 04:42:32;;;;;;;40.70;20.83;;;;;;;14.94;100.00;101300.38;5042784;28;20021;-69
2023/05/09 04:44:58;;;;;;;34.65;17.08;;;;;;;14.93;100.00;101299.53;5005109;28;20476;-69
2023/05/09 04:47:24;;;;;;;34.90;17.42;;;;;;;14.94;100.00;101290.75;5005424;28;20555;-69
2023/05/09 04:49:50;;;;;;;44.17;22.50;;;;;;;15.05;100.00;101283.47;5041190;28;20120;-69
2023/05/09 04:52:16;;;;;;;42.55;21.15;;;;;;;15.08;100.00;101286.56;5025035;28;20033;-69
2023/05/09 04:54:42;;;;;;;44.20;22.30;;;;;;;15.07;100.00;101281.50;5018092;28;20041;-69
2023/05/09 04:57:08;;;;;;;47.78;20.48;;;;;;;15.07;100.00;101277.13;5023975;28;20048;-69
2023/05/09 04:59:35;;;;;;;45.65;21.00;;;;;;;15.05;100.00;101273.03;5021305;28;20076;-69
2023/05/09 05:02:01;;;;;;;44.75;21.85;;;;;;;15.09;100.00;101272.53;5019888;28;20033;-69
2023/05/09 05:04:27;;;;;;;41.47;21.40;;;;;;;15.06;100.00;101275.47;5024087;28;20045;-69
2023/05/09 05:06:53;;;;;;;48.50;22.63;;;;;;;15.03;100.00;101270.63;5039167;28;20395;-69
2023/05/09 05:09:18;;;;;;;46.47;22.38;;;;;;;15.06;100.00;101264.22;5039359;28;20395;-69
2023/05/09 05:11:44;;;;;;;48.10;22.10;;;;;;;15.04;100.00;101269.63;5026110;28;20099;-69
2023/05/09 05:14:10;;;;;;;44.10;22.33;;;;;;;15.08;100.00;101270.88;5021810;28;20046;-69
2023/05/09 05:16:35;;;;;;;43.60;19.73;;;;;;;15.06;100.00;101261.63;5023442;28;20096;-69
2023/05/09 05:19:01;;;;;;;43.25;20.08;;;;;;;15.06;100.00;101269.44;5039643;28;20068;-69
2023/05/09 05:21:29;;;;;;;35.90;19.17;;;;;;;15.08;100.00;101259.63;5022081;28;20037;-69
2023/05/09 05:23:54;;;;;;;41.95;21.25;;;;;;;15.14;100.00;101248.50;5020762;28;20049;-69
2023/05/09 05:26:20;;;;;;;42.88;21.58;;;;;;;15.19;100.00;101240.94;5024429;28;20040;-69
2023/05/09 05:28:46;;;;;;;44.38;23.00;;;;;;;15.22;100.00;101243.22;5020439;28;20055;-69
2023/05/09 05:31:12;;;;;;;43.33;21.90;;;;;;;15.28;100.00;101242.50;5022776;28;20064;-69
2023/05/09 05:33:38;;;;;;;47.90;22.40;;;;;;;15.33;100.00;101244.56;5021530;28;20049;-69
2023/05/09 05:36:04;;;;;;;42.45;22.17;;;;;;;15.31;100.00;101228.28;5006746;28;20025;-69
2023/05/09 05:38:30;;;;;;;45.17;22.20;;;;;;;15.47;100.00;101229.94;5003027;28;20067;-69
2023/05/09 05:40:57;;;;;;;46.20;22.35;;;;;;;15.48;100.00;101229.78;5023813;28;20403;-69
2023/05/09 05:43:27;;;;;;;44.35;22.67;;;;;;;15.56;100.00;101221.84;5039760;28;20029;-69
2023/05/09 05:45:53;;;;;;;48.53;23.98;;;;;;;15.67;100.00;101230.22;5020103;28;20037;-69
2023/05/09 05:48:25;;;;;;;44.67;20.75;;;;;;;15.72;100.00;101227.88;5020225;28;20044;-69
2023/05/09 05:50:52;;;;;;;47.05;23.35;;;;;;;15.81;100.00;101223.44;5005210;28;20582;-69
2023/05/09 05:53:21;;;;;;;44.50;22.48;;;;;;;15.76;100.00;101222.16;5040502;28;20612;-69
2023/05/09 05:55:49;;;;;;;46.05;22.13;;;;;;;15.75;100.00;101228.38;5023115;28;20040;-69
2023/05/09 05:58:15;;;;;;;45.55;21.42;;;;;;;15.89;100.00;101218.91;5022459;28;20042;-69
2023/05/09 06:00:40;;;;;;;49.15;22.52;;;;;;;15.83;100.00;101216.22;5024476;28;20044;-69
2023/05/09 06:03:07;;;;;;;54.67;26.13;;;;;;;15.81;100.00;101211.16;5016344;28;20112;-69
2023/05/09 06:05:45;;;;;;;50.30;24.67;;;;;;;15.80;100.00;101212.13;5020934;28;20410;-69
2023/05/09 06:08:11;;;;;;;53.03;25.95;;;;;;;15.73;100.00;101206.84;5035970;28;20067;-69
2023/05/09 06:10:37;;;;;;;54.20;25.65;;;;;;;15.78;100.00;101201.03;5024143;28;20056;-69
2023/05/09 06:13:02;;;;;;;44.25;23.15;;;;;;;15.80;100.00;101193.84;5023920;28;20029;-69
2023/05/09 06:15:28;;;;;;;44.95;22.10;;;;;;;15.80;100.00;101198.25;5023401;28;20446;-69
2023/05/09 06:17:54;;;;;;;49.53;22.67;;;;;;;15.87;100.00;101192.13;5020643;28;20037;-69
2023/05/09 06:20:20;;;;;;;48.50;22.23;;;;;;;15.82;100.00;101193.66;5024551;28;20028;-69
2023/05/09 06:22:46;;;;;;;39.78;19.27;;;;;;;15.79;100.00;101181.78;5023953;28;20391;-71
2023/05/09 06:25:11;;;;;;;39.92;21.63;;;;;;;15.84;100.00;101182.03;5006752;28;20391;-69
2023/05/09 06:27:37;;;;;;;44.92;21.98;;;;;;;15.86;100.00;101184.44;5033581;28;20026;-69
2023/05/09 06:30:03;;;;;;;39.80;20.88;;;;;;;15.87;100.00;101186.09;5023450;28;20103;-69
2023/05/09 06:32:28;;;;;;;40.92;21.88;;;;;;;15.87;100.00;101179.06;5023845;28;20037;-69
2023/05/09 06:34:54;;;;;;;44.63;20.95;;;;;;;15.88;100.00;101179.84;5022027;28;20111;-69
2023/05/09 06:37:19;;;;;;;40.45;20.63;;;;;;;15.91;100.00;101169.84;5021960;28;20037;-69
2023/05/09 06:39:45;;;;;;;44.53;21.10;;;;;;;15.99;100.00;101170.75;5021355;28;20191;-69
2023/05/09 06:42:10;;;;;;;50.10;25.50;;;;;;;16.05;100.00;101170.00;5024182;28;20041;-69
2023/05/09 06:44:37;;;;;;;53.50;24.13;;;;;;;16.10;100.00;101165.84;5038664;28;20056;-69
2023/05/09 06:47:03;;;;;;;53.30;24.10;;;;;;;16.12;100.00;101160.44;5018494;28;20488;-69
2023/05/09 06:49:29;;;;;;;49.00;23.77;;;;;;;16.21;100.00;101150.69;5022574;28;20045;-69
2023/05/09 06:51:54;;;;;;;43.72;23.58;;;;;;;16.35;100.00;101155.06;5018028;28;20030;-69
2023/05/09 06:54:20;;;;;;;47.55;25.05;;;;;;;16.41;100.00;101148.28;5023210;28;20606;-69
2023/05/09 06:56:45;;;;;;;50.97;26.23;;;;;;;16.45;100.00;101146.91;5020888;28;20927;-69
2023/05/09 06:59:12;;;;;;;51.97;23.75;;;;;;;16.53;100.00;101138.94;5024568;28;20069;-69
2023/05/09 07:01:40;;;;;;;48.15;25.15;;;;;;;16.64;100.00;101141.06;5025783;28;20037;-69
2023/05/09 07:04:06;;;;;;;42.17;23.60;;;;;;;16.65;100.00;101131.38;5021666;28;20049;-69
2023/05/09 07:06:32;;;;;;;45.47;23.48;;;;;;;16.76;100.00;101137.94;5024530;28;20112;-69
2023/05/09 07:08:57;;;;;;;48.92;23.83;;;;;;;16.97;100.00;101129.25;5025110;28;20504;-69
2023/05/09 07:11:22;;;;;;;48.22;23.00;;;;;;;16.98;99.26;101126.44;5024660;28;20929;-69
2023/05/09 07:13:48;;;;;;;50.95;24.50;;;;;;;17.01;100.00;101131.31;5021738;28;20057;-69
2023/05/09 07:16:14;;;;;;;48.53;22.10;;;;;;;17.06;99.82;101123.69;5019030;28;20029;-69
2023/05/09 07:18:39;;;;;;;44.47;24.83;;;;;;;17.15;98.70;101119.13;5020815;28;20057;-69
2023/05/09 07:21:08;;;;;;;45.38;22.80;;;;;;;17.30;96.92;101109.31;5019568;28;20033;-69
2023/05/09 07:23:33;;;;;;;43.72;23.15;;;;;;;17.33;96.96;101108.16;5019192;28;20050;-69
2023/05/09 07:25:58;;;;;;;39.60;19.90;;;;;;;17.38;98.04;101104.94;5020899;28;20091;-69
2023/05/09 07:28:27;;;;;;;44.65;20.90;;;;;;;17.52;95.55;101104.81;5022242;28;20137;-69
2023/05/09 07:30:56;;;;;;;48.67;21.33;;;;;;;17.60;93.32;101098.59;5021502;28;20108;-69
2023/05/09 07:33:21;;;;;;;45.95;22.83;;;;;;;17.67;93.00;101098.63;5021323;28;20049;-69
2023/05/09 07:35:47;;;;;;;37.97;19.75;;;;;;;17.89;91.47;101094.09;5021321;28;20087;-69
2023/05/09 07:38:13;;;;;;;34.00;18.02;;;;;;;18.14;90.57;101094.38;5019573;28;20553;-69
2023/05/09 07:40:39;;;;;;;35.15;17.85;;;;;;;18.48;90.29;101100.47;5021550;28;20133;-69
2023/05/09 07:43:05;;;;;;;36.08;17.75;;;;;;;18.42;86.31;101096.84;5019053;28;20044;-69
2023/05/09 07:45:30;;;;;;;31.35;16.40;;;;;;;18.47;86.15;101094.41;5021997;28;20033;-69
2023/05/09 07:47:56;;;;;;;32.67;16.75;;;;;;;19.00;84.71;101087.53;5020583;28;20036;-69
2023/05/09 07:50:22;;;;;;;36.90;15.90;;;;;;;19.22;80.75;101083.66;5022122;28;20377;-69
2023/05/09 07:52:48;;;;;;;25.98;14.20;;;;;;;19.61;79.90;101079.28;5021969;28;20044;-69
2023/05/09 07:55:13;;;;;;;37.92;16.05;;;;;;;19.86;75.99;101072.53;5002450;28;20055;-69
2023/05/09 07:57:39;;;;;;;32.58;15.10;;;;;;;20.21;77.42;101059.75;5022886;28;20606;-69
2023/05/09 08:00:06;;;;;;;24.23;13.05;;;;;;;20.03;72.88;101065.75;5002795;28;20056;-69
2023/05/09 08:02:38;;;;;;;30.02;14.63;;;;;;;20.15;74.30;101066.66;5021662;28;20104;-69
2023/05/09 08:05:04;;;;;;;19.55;11.68;;;;;;;20.35;72.63;101058.63;5036310;28;20480;-69
2023/05/09 08:07:30;;;;;;;23.15;11.98;;;;;;;20.43;71.23;101065.44;5022227;28;20033;-69
2023/05/09 08:09:55;;;;;;;19.67;10.18;;;;;;;20.63;72.47;101054.78;5020582;28;20499;-69
2023/05/09 08:12:21;;;;;;;23.27;11.18;;;;;;;20.84;71.09;101050.16;5021984;28;20091;-69
2023/05/09 08:14:46;;;;;;;29.45;11.98;;;;;;;21.01;69.28;101051.19;5036741;28;20041;-69
2023/05/09 08:17:12;;;;;;;24.48;11.60;;;;;;;21.13;69.71;101048.59;5024217;28;20045;-69
2023/05/09 08:19:37;;;;;;;22.52;11.93;;;;;;;20.90;67.44;101038.72;5017656;28;20523;-69
2023/05/09 08:22:03;;;;;;;24.38;12.23;;;;;;;20.64;68.80;101035.31;5037442;28;20044;-69
2023/05/09 08:24:28;;;;;;;20.95;11.57;;;;;;;20.72;70.82;101032.41;5032435;28;20041;-69
2023/05/09 08:26:54;;;;;;;21.67;11.60;;;;;;;20.51;69.12;101024.88;5024982;28;20408;-69
2023/05/09 08:29:19;;;;;;;22.05;10.70;;;;;;;20.22;71.14;101027.94;5021410;28;20045;-69
2023/05/09 08:31:45;;;;;;;23.00;11.82;;;;;;;19.96;71.63;101018.41;5024024;28;20119;-69
2023/05/09 08:34:10;;;;;;;19.02;10.07;;;;;;;19.89;74.31;101019.47;5039643;28;20133;-69
2023/05/09 08:36:36;;;;;;;25.73;10.75;;;;;;;20.03;73.26;101021.00;5020256;28;20030;-69
2023/05/09 08:39:04;;;;;;;18.95;8.88;;;;;;;20.67;71.63;101013.81;5017320;28;20084;-69
2023/05/09 08:41:34;;;;;;;25.70;10.88;;;;;;;20.95;69.29;101008.06;5025840;28;20120;-69
2023/05/09 08:44:00;;;;;;;18.92;9.95;;;;;;;21.18;67.59;101003.94;5019784;28;20049;-69
2023/05/09 08:46:37;;;;;;;24.02;10.32;;;;;;;21.14;66.28;100993.03;5041128;28;20033;-70
2023/05/09 08:49:07;;;;;;;20.15;10.23;;;;;;;21.12;66.68;100991.66;5018787;28;20088;-69
2023/05/09 08:51:36;;;;;;;25.48;9.82;;;;;;;21.73;67.24;100984.56;5037301;28;20605;-69
2023/05/09 08:54:03;;;;;;;15.10;8.07;;;;;;;22.08;63.15;100987.28;5016000;28;20056;-69
2023/05/09 08:56:29;;;;;;;16.98;8.82;;;;;;;22.44;61.82;100974.13;5027292;28;20491;-68
2023/05/09 08:58:55;;;;;;;18.65;8.02;;;;;;;22.66;59.13;100972.50;5037616;28;20045;-69
2023/05/09 09:01:22;;;;;;;16.38;7.63;;;;;;;22.89;60.71;100974.28;5024728;28;20542;-69
2023/05/09 09:03:48;;;;;;;14.55;7.63;;;;;;;22.73;60.45;100969.72;5021191;28;20208;-69
2023/05/09 09:06:15;;;;;;;16.20;8.65;;;;;;;22.40;61.70;100971.16;5036745;28;20486;-69
2023/05/09 09:08:45;;;;;;;11.50;7.35;;;;;;;22.38;63.66;100972.38;5023443;28;20049;-69
2023/05/09 09:11:12;;;;;;;16.17;7.28;;;;;;;22.46;62.97;100967.56;5041833;28;20033;-69
2023/05/09 09:13:40;;;;;;;18.55;7.75;;;;;;;22.23;61.37;100964.91;5024369;28;20041;-69
2023/05/09 09:16:13;;;;;;;16.30;7.75;;;;;;;22.03;63.25;100955.47;5025840;28;20040;-69
2023/05/09 09:18:38;;;;;;;12.40;7.40;;;;;;;21.93;64.31;100956.03;5025336;28;20050;-69
2023/05/09 09:21:10;;;;;;;16.92;6.95;;;;;;;21.84;66.13;100957.41;5025660;28;20392;-69
2023/05/09 09:23:41;;;;;;;13.45;6.78;;;;;;;21.71;66.06;100952.34;5024950;28;20492;-69
2023/05/09 09:26:07;;;;;;;14.57;7.30;;;;;;;21.70;65.02;100953.34;5039852;28;21288;-69
2023/05/09 09:28:33;;;;;;;15.30;6.72;;;;;;;21.73;64.02;100948.44;5025881;28;20060;-69
2023/05/09 09:30:59;;;;;;;7.60;4.65;;;;;;;21.78;64.05;100945.13;5026149;28;20492;-69
2023/05/09 09:33:27;;;;;;;9.68;6.00;;;;;;;21.67;63.59;100938.00;5024930;28;20048;-69
2023/05/09 09:35:55;;;;;;;17.25;6.80;;;;;;;21.81;65.13;100943.84;5024406;28;20041;-69
2023/05/09 09:38:22;;;;;;;14.45;6.00;;;;;;;21.60;65.87;100943.34;5021823;28;20049;-69
2023/05/09 09:40:54;;;;;;;14.65;5.53;;;;;;;21.71;64.35;100939.94;5027616;28;20550;-69
2023/05/09 09:43:26;;;;;;;;;;;;;;;21.75;63.54;100933.16;5022797;28;20049;-69
2023/05/09 09:45:52;;;;;;;9.85;5.53;;;;;;;21.81;65.61;100934.09;5025355;28;19924;-69
2023/05/09 09:48:23;;;;;;;13.43;6.20;;;;;;;21.59;64.48;100936.47;5019272;28;20072;-69
2023/05/09 09:50:48;;;;;;;14.55;5.70;;;;;;;21.65;64.06;100927.66;5023304;28;20660;-69
2023/05/09 09:53:15;;;;;;;7.05;4.40;;;;;;;21.37;64.49;100925.59;5026557;28;20056;-70
2023/05/09 09:55:49;;;;;;;11.95;4.60;;;;;;;21.38;65.46;100922.75;5025713;28;20029;-70
2023/05/09 09:58:17;;;;;;;11.88;5.15;;;;;;;21.31;65.25;100922.03;5022545;28;20045;-69
2023/05/09 10:00:43;;;;;;;8.15;5.03;;;;;;;21.23;66.10;100919.72;5019826;28;20033;-70
2023/05/09 10:03:14;;;;;;;8.10;4.18;;;;;;;21.04;68.31;100913.69;5022645;28;20045;-70
2023/05/09 10:05:40;;;;;;;6.97;4.18;;;;;;;21.13;67.87;100916.78;5021178;28;20030;-69
2023/05/09 10:08:08;;;;;;;9.50;5.20;;;;;;;21.10;66.44;100909.34;5038699;28;20115;-69
2023/05/09 10:10:35;;;;;;;10.07;5.63;;;;;;;20.96;68.49;100909.53;5002097;28;20120;-69
2023/05/09 10:13:06;;;;;;;9.13;4.95;;;;;;;20.96;69.21;100911.34;5024907;28;20372;-69
2023/05/09 10:15:33;;;;;;;6.80;5.13;;;;;;;20.82;68.93;100905.44;5022430;28;20040;-68
2023/05/09 10:18:03;;;;;;;5.40;3.33;;;;;;;20.87;67.66;100902.94;5023921;28;21385;-69
2023/05/09 10:20:29;;;;;;;7.78;3.53;;;;;;;20.88;68.49;100903.75;5023856;28;20094;-69
2023/05/09 10:23:01;;;;;;;8.68;3.88;;;;;;;20.83;69.07;100891.22;5016921;28;20040;-69
2023/05/09 10:25:34;;;;;;;7.67;3.83;;;;;;;20.78;69.47;100894.53;5022329;28;20068;-68
2023/05/09 10:28:04;;;;;;;8.15;3.65;;;;;;;21.01;67.92;100885.13;5020086;28;20040;-69
2023/05/09 10:30:38;;;;;;;6.45;4.07;;;;;;;21.20;69.62;100888.50;5026510;28;21373;-68
2023/05/09 10:33:09;;;;;;;6.82;3.50;;;;;;;21.58;66.50;100877.63;5015659;28;20124;-68
2023/05/09 10:35:39;;;;;;;6.22;3.40;;;;;;;21.55;66.80;100875.47;5024209;28;20033;-69
2023/05/09 10:38:05;;;;;;;5.15;2.90;;;;;;;21.39;66.85;100870.78;5025191;28;20480;-69
2023/05/09 10:43:00;;;;;;;8.25;3.13;;;;;;;21.16;67.10;100863.63;4998407;28;20049;-68
2023/05/09 10:45:26;;;;;;;6.38;3.28;;;;;;;21.02;65.38;100865.66;5002498;28;20029;-68
2023/05/09 10:47:52;;;;;;;4.20;2.90;;;;;;;21.15;65.90;100860.19;4999022;28;20030;-68
2023/05/09 10:50:22;;;;;;;4.53;3.00;;;;;;;21.04;67.58;100862.78;5000865;28;20415;-67
2023/05/09 10:53:23;;;;;;;6.05;3.17;;;;;;;20.93;67.49;100856.47;5020475;28;20037;-69
2023/05/09 10:55:59;;;;;;;6.00;3.38;;;;;;;20.86;67.06;100861.00;5009421;28;20033;-67
2023/05/09 10:58:30;;;;;;;6.65;2.78;;;;;;;20.64;69.11;100856.19;5025236;28;20423;-68
2023/05/09 11:00:57;;;;;;;3.88;2.40;;;;;;;20.65;69.44;100851.75;5024283;28;20033;-68
2023/05/09 11:03:24;;;;;;;3.00;2.40;;;;;;;20.73;69.93;100849.59;5018408;28;20037;-68
2023/05/09 11:05:59;;;;;;;5.93;3.20;;;;;;;20.61;71.46;100848.75;5023838;28;20044;-68
2023/05/09 11:08:25;;;;;;;5.30;3.10;;;;;;;20.69;71.55;100842.38;5004985;28;20519;-68
2023/05/09 11:10:53;;;;;;;8.98;3.85;;;;;;;20.57;71.61;100829.91;5022876;28;20044;-68